| time (UTC) | temp C | wind direction | speed KPH | gust KPH | rain 1hr cm | rain 24hr cm | rain mn cm | humidity % | barometer mb |
| 20260507074535 | 11 | 306 | 3.2 | 12.9 | 0.00 | 1.24 | 0.03 | 72 | 1010.9 |
| 20260507073035 | 11 | 352 | 3.2 | 9.7 | 0.00 | 1.24 | 0.03 | 76 | 1010.8 |
| 20260507071534 | 11 | 319 | 4.8 | 12.9 | 0.00 | 1.24 | 0.03 | 76 | 1010.8 |
| 20260507070035 | 11 | 309 | 4.8 | 9.7 | 0.00 | 1.24 | 0.03 | 77 | 1011.0 |
| 20260507064531 | 11 | 299 | 4.8 | 14.5 | 0.00 | 1.24 | 0.03 | 77 | 1010.9 |
| 20260507063032 | 11 | 314 | 3.2 | 9.7 | 0.00 | 1.24 | 0.03 | 78 | 1010.9 |
| 20260507061534 | 11 | 321 | 4.8 | 14.5 | 0.00 | 1.24 | 0.03 | 78 | 1011.0 |
| 20260507060036 | 11 | 0 | 0.0 | 4.8 | 0.00 | 1.24 | 0.03 | 78 | 1010.8 |
| 20260507054539 | 11 | 323 | 4.8 | 14.5 | 0.03 | 1.24 | 0.03 | 78 | 1010.9 |
| 20260507053035 | 11 | 310 | 3.2 | 12.9 | 0.03 | 1.24 | 0.03 | 78 | 1010.9 |
| 20260507051533 | 11 | 311 | 6.4 | 14.5 | 0.03 | 1.24 | 0.03 | 78 | 1010.8 |
| 20260507050037 | 11 | 329 | 8.0 | 14.5 | 0.03 | 1.24 | 0.03 | 79 | 1010.8 |
| 20260507044535 | 11 | 323 | 8.0 | 12.9 | 0.00 | 1.22 | 0.00 | 78 | 1010.9 |
| 20260507043035 | 11 | 313 | 4.8 | 16.1 | 0.00 | 1.22 | 0.00 | 78 | 1011.0 |
| 20260507041548 | 11 | 314 | 6.4 | 9.7 | 0.00 | 1.22 | 0.00 | 77 | 1011.2 |
| 20260507040034 | 12 | 300 | 6.4 | 11.3 | 0.00 | 1.22 | 0.00 | 78 | 1011.1 |
| 20260507034531 | 12 | 310 | 3.2 | 19.3 | 0.00 | 1.22 | 1.22 | 78 | 1010.3 |
| 20260507033033 | 12 | 326 | 8.0 | 20.9 | 0.00 | 1.22 | 1.22 | 79 | 1010.4 |
| 20260507031534 | 12 | 323 | 8.0 | 16.1 | 0.00 | 1.22 | 1.22 | 79 | 1010.7 |
| 20260507030033 | 12 | 25 | 8.0 | 16.1 | 0.00 | 1.22 | 1.22 | 80 | 1010.6 |
| 20260507024535 | 12 | 31 | 4.8 | 12.9 | 0.00 | 1.22 | 1.22 | 81 | 1010.3 |
| 20260507023033 | 12 | 307 | 4.8 | 14.5 | 0.00 | 1.22 | 1.22 | 80 | 1010.1 |
| 20260507021533 | 13 | 323 | 4.8 | 19.3 | 0.00 | 1.22 | 1.22 | 80 | 1010.1 |
| 20260507020036 | 13 | 345 | 6.4 | 14.5 | 0.00 | 1.22 | 1.22 | 82 | 1010.3 |
| 20260507014548 | 13 | 5 | 4.8 | 14.5 | 0.00 | 1.22 | 1.22 | 83 | 1010.4 |
| 20260507013044 | 14 | 306 | 6.4 | 14.5 | 0.00 | 1.22 | 1.22 | 83 | 1010.3 |
| 20260507011538 | 14 | 312 | 3.2 | 12.9 | 0.00 | 1.22 | 1.22 | 83 | 1010.2 |
| 20260507010034 | 15 | 328 | 6.4 | 19.3 | 0.00 | 1.22 | 1.22 | 83 | 1009.8 |
| 20260507004531 | 15 | 349 | 8.0 | 14.5 | 0.00 | 1.22 | 1.22 | 82 | 1009.4 |
| 20260507003034 | 16 | 293 | 3.2 | 6.4 | 0.00 | 1.22 | 1.22 | 83 | 1009.1 |
| 20260507001539 | 16 | 281 | 1.6 | 11.3 | 0.00 | 1.22 | 1.22 | 83 | 1008.6 |
| 20260507000035 | 16 | 290 | 3.2 | 8.0 | 0.00 | 1.22 | 1.22 | 83 | 1008.3 |
| 20260506234533 | 16 | 272 | 1.6 | 4.8 | 0.00 | 1.22 | 1.22 | 83 | 1007.9 |
| 20260506233032 | 16 | 289 | 3.2 | 6.4 | 0.05 | 1.22 | 1.22 | 85 | 1008.0 |
| 20260506231540 | 16 | 292 | 3.2 | 4.8 | 0.18 | 1.22 | 1.22 | 90 | 1008.0 |
| 20260506230032 | 17 | 277 | 0.0 | 1.6 | 0.20 | 1.22 | 1.22 | 92 | 1007.9 |
| 20260506224535 | 17 | 274 | 1.6 | 6.4 | 0.20 | 1.22 | 1.22 | 91 | 1007.6 |
| 20260506223035 | 17 | 281 | 1.6 | 4.8 | 0.15 | 1.17 | 1.17 | 90 | 1007.6 |
| 20260506221533 | 17 | 290 | 3.2 | 8.0 | 0.03 | 1.04 | 1.04 | 88 | 1007.4 |
| 20260506220035 | 18 | 315 | 3.2 | 8.0 | 0.00 | 1.02 | 1.02 | 86 | 1007.0 |
| 20260506214532 | 18 | 0 | 0.0 | 3.2 | 0.00 | 1.02 | 1.02 | 86 | 1006.9 |
| 20260506213037 | 18 | 251 | 0.0 | 8.0 | 0.00 | 1.02 | 1.02 | 85 | 1006.7 |
| 20260506211533 | 18 | 257 | 1.6 | 4.8 | 0.00 | 1.02 | 1.02 | 85 | 1006.8 |
| 20260506210038 | 18 | 261 | 1.6 | 6.4 | 0.00 | 1.02 | 1.02 | 85 | 1006.6 |
| 20260506204533 | 18 | 264 | 1.6 | 6.4 | 0.00 | 1.02 | 1.02 | 85 | 1006.6 |
| 20260506203041 | 18 | 0 | 1.6 | 6.4 | 0.00 | 1.02 | 1.02 | 87 | 1006.5 |
| 20260506201533 | 18 | 252 | 1.6 | 6.4 | 0.00 | 1.02 | 1.02 | 89 | 1006.6 |
| 20260506200035 | 17 | 288 | 1.6 | 6.4 | 0.00 | 1.02 | 1.02 | 90 | 1006.7 |
| 20260506194538 | 17 | 277 | 1.6 | 3.2 | 0.00 | 1.02 | 1.02 | 91 | 1006.9 |
| 20260506193033 | 16 | 277 | 1.6 | 4.8 | 0.00 | 1.02 | 1.02 | 91 | 1006.9 |
| 20260506191534 | 16 | 271 | 1.6 | 6.4 | 0.00 | 1.02 | 1.02 | 91 | 1006.9 |
| 20260506190036 | 16 | 250 | 1.6 | 6.4 | 0.00 | 1.02 | 1.02 | 92 | 1006.9 |
| 20260506184531 | 16 | 248 | 1.6 | 8.0 | 0.00 | 1.02 | 1.02 | 92 | 1007.2 |
| 20260506183035 | 16 | 271 | 1.6 | 8.0 | 0.00 | 1.02 | 1.02 | 93 | 1007.3 |
| 20260506181538 | 16 | 248 | 1.6 | 3.2 | 0.00 | 1.02 | 1.02 | 93 | 1007.3 |
| 20260506180049 | 16 | 259 | 1.6 | 4.8 | 0.00 | 1.02 | 1.02 | 93 | 1007.4 |
| 20260506174533 | 16 | 283 | 1.6 | 6.4 | 0.00 | 1.02 | 1.02 | 93 | 1007.4 |
| 20260506173041 | 15 | 0 | 1.6 | 3.2 | 0.00 | 1.02 | 1.02 | 93 | 1007.3 |
| 20260506171548 | 15 | 255 | 0.0 | 11.3 | 0.00 | 1.02 | 1.02 | 93 | 1007.4 |
| 20260506170037 | 15 | 222 | 1.6 | 3.2 | 0.03 | 1.02 | 1.02 | 93 | 1007.5 |
| 20260506164537 | 15 | 243 | 0.0 | 6.4 | 0.03 | 1.02 | 1.02 | 93 | 1007.6 |
| 20260506163047 | 15 | 258 | 0.0 | 8.0 | 0.03 | 1.02 | 1.02 | 93 | 1007.7 |
| 20260506161544 | 15 | 267 | 0.0 | 6.4 | 0.10 | 1.02 | 1.02 | 93 | 1007.7 |
| 20260506160033 | 15 | 272 | 1.6 | 6.4 | 0.20 | 0.99 | 0.99 | 92 | 1007.7 |
| 20260506154539 | 15 | 0 | 0.0 | 6.4 | 0.41 | 0.99 | 0.99 | 92 | 1007.5 |
| 20260506153033 | 15 | 268 | 1.6 | 6.4 | 0.51 | 0.97 | 0.97 | 92 | 1007.6 |
| 20260506151535 | 15 | 277 | 1.6 | 6.4 | 0.48 | 0.89 | 0.89 | 92 | 1007.8 |
| 20260506150036 | 15 | 200 | 1.6 | 8.0 | 0.51 | 0.79 | 0.79 | 91 | 1008.1 |
| 20260506144532 | 16 | 264 | 1.6 | 14.5 | 0.41 | 0.58 | 0.58 | 91 | 1008.6 |
| 20260506143033 | 16 | 251 | 1.6 | 11.3 | 0.28 | 0.43 | 0.43 | 90 | 1008.2 |
| 20260506141534 | 16 | 258 | 0.0 | 4.8 | 0.25 | 0.41 | 0.41 | 90 | 1008.1 |
| 20260506140037 | 16 | 0 | 0.0 | 4.8 | 0.13 | 0.25 | 0.25 | 89 | 1008.1 |
| 20260506134605 | 16 | 0 | 0.0 | 1.6 | 0.08 | 0.18 | 0.18 | 88 | 1008.1 |
| 20260506133034 | 16 | 0 | 0.0 | 1.6 | 0.10 | 0.15 | 0.15 | 89 | 1008.2 |
| 20260506131533 | 16 | 0 | 0.0 | 1.6 | 0.13 | 0.15 | 0.15 | 88 | 1008.3 |
| 20260506130032 | 16 | 242 | 0.0 | 0.0 | 0.10 | 0.13 | 0.13 | 88 | 1008.2 |
| 20260506124537 | 16 | 0 | 0.0 | 0.0 | 0.10 | 0.10 | 0.10 | 87 | 1008.5 |
| 20260506123042 | 16 | 0 | 0.0 | 1.6 | 0.05 | 0.05 | 0.05 | 86 | 1008.6 |
| 20260506121536 | 16 | 0 | 0.0 | 1.6 | 0.03 | 0.03 | 0.03 | 85 | 1008.7 |
| 20260506120032 | 16 | 242 | 0.0 | 1.6 | 0.03 | 0.03 | 0.03 | 85 | 1008.3 |
| 20260506114543 | 15 | 0 | 0.0 | 1.6 | 0.00 | 0.00 | 0.00 | 84 | 1008.2 |
| 20260506113037 | 15 | 0 | 0.0 | 0.0 | 0.00 | 0.00 | 0.00 | 84 | 1008.1 |
| 20260506111533 | 15 | 0 | 0.0 | 0.0 | 0.00 | 0.00 | 0.00 | 83 | 1008.0 |
| 20260506110034 | 15 | 0 | 0.0 | 1.6 | 0.00 | 0.00 | 0.00 | 81 | 1007.9 |
| 20260506104534 | 15 | 0 | 0.0 | 1.6 | 0.00 | 0.00 | 0.00 | 80 | 1007.8 |
| 20260506103034 | 15 | 90 | 1.6 | 3.2 | 0.00 | 0.00 | 0.00 | 79 | 1007.6 |
| 20260506101536 | 15 | 98 | 1.6 | 1.6 | 0.00 | 0.00 | 0.00 | 79 | 1007.4 |
| 20260506100036 | 15 | 100 | 0.0 | 1.6 | 0.00 | 0.00 | 0.00 | 78 | 1007.3 |
| 20260506094534 | 15 | 113 | 1.6 | 1.6 | 0.00 | 0.00 | 0.00 | 77 | 1007.3 |
| 20260506093034 | 15 | 86 | 0.0 | 1.6 | 0.00 | 0.00 | 0.00 | 78 | 1007.5 |
| 20260506091534 | 15 | 0 | 0.0 | 1.6 | 0.00 | 0.00 | 0.00 | 77 | 1007.5 |
| 20260506090031 | 15 | 86 | 1.6 | 3.2 | 0.00 | 0.00 | 0.00 | 77 | 1007.6 |
| 20260506084536 | 15 | 105 | 1.6 | 1.6 | 0.00 | 0.00 | 0.00 | 76 | 1007.7 |
| 20260506083037 | 15 | 108 | 0.0 | 3.2 | 0.00 | 0.00 | 0.00 | 76 | 1007.7 |
| 20260506081542 | 15 | 98 | 1.6 | 3.2 | 0.00 | 0.00 | 0.00 | 77 | 1007.7 |